createdAt,value
2018-10-16T00:01:17.550Z,37.17
2018-10-16T00:03:48.299Z,37.08
2018-10-16T00:06:19.060Z,37.07
2018-10-16T00:08:50.005Z,37.17
2018-10-16T00:11:20.572Z,37.17
2018-10-16T00:13:51.310Z,37.07
2018-10-16T00:16:22.103Z,36.97
2018-10-16T00:18:52.891Z,37.05
2018-10-16T00:21:23.623Z,37.05
2018-10-16T00:23:54.349Z,37.22
2018-10-16T00:26:25.058Z,37.33
2018-10-16T00:28:55.851Z,37.62
2018-10-16T00:31:26.504Z,37.62
2018-10-16T00:33:57.288Z,37.84
2018-10-16T00:36:28.065Z,37.80
2018-10-16T00:38:58.915Z,37.75
2018-10-16T00:47:05.322Z,37.83
2018-10-16T00:49:54.909Z,37.85
2018-10-16T00:52:25.998Z,37.85
2018-10-16T00:54:56.833Z,37.94
2018-10-16T00:57:27.467Z,37.90
2018-10-16T00:59:58.299Z,38.00
2018-10-16T01:02:29.117Z,38.08
2018-10-16T01:04:59.946Z,38.26
2018-10-16T01:07:30.796Z,38.26
2018-10-16T01:10:01.531Z,38.24
2018-10-16T01:12:32.338Z,38.30
2018-10-16T01:15:03.111Z,38.41
2018-10-16T01:17:33.955Z,38.37
2018-10-16T01:20:03.407Z,38.37
2018-10-16T01:22:34.109Z,38.63
2018-10-16T01:25:04.938Z,38.68
2018-10-16T01:27:35.845Z,38.68
2018-10-16T01:30:06.542Z,38.65
2018-10-16T01:32:37.890Z,38.83
2018-10-16T01:35:10.074Z,39.07
2018-10-16T01:37:40.903Z,39.34
2018-10-16T01:40:13.551Z,39.34
2018-10-16T01:42:44.311Z,39.32
2018-10-16T01:45:15.080Z,39.18
2018-10-16T01:47:45.960Z,39.25
2018-10-16T01:50:15.417Z,39.25
2018-10-16T01:52:46.067Z,39.16
2018-10-16T01:55:16.915Z,39.31
2018-10-16T01:57:47.817Z,39.31
2018-10-16T02:00:18.529Z,39.21
2018-10-16T02:02:49.136Z,39.40
2018-10-16T02:05:19.922Z,39.42
2018-10-16T02:07:50.570Z,39.53
2018-10-16T02:10:21.343Z,39.64
2018-10-16T02:12:52.076Z,39.73
2018-10-16T02:15:22.866Z,39.72
2018-10-16T02:17:53.588Z,39.72
2018-10-16T02:20:24.341Z,39.90
2018-10-16T02:22:55.157Z,39.90
2018-10-16T02:25:25.913Z,39.87
2018-10-16T02:27:56.570Z,39.89
2018-10-16T02:30:27.341Z,39.88
2018-10-16T02:32:58.138Z,39.73
2018-10-16T02:35:28.906Z,39.69
2018-10-16T02:37:59.598Z,39.69
2018-10-16T02:40:30.327Z,39.64
2018-10-16T02:43:01.075Z,39.88
2018-10-16T02:45:31.914Z,39.61
2018-10-16T02:48:02.783Z,39.61
2018-10-16T02:50:33.474Z,39.49
2018-10-16T02:53:04.332Z,39.51
2018-10-16T02:55:35.052Z,39.47
2018-10-16T02:58:05.896Z,39.47
2018-10-16T03:00:36.594Z,39.47
2018-10-16T03:03:07.388Z,39.42
2018-10-16T03:05:38.114Z,39.34
2018-10-16T03:08:09.086Z,39.43
2018-10-16T03:10:39.898Z,39.40
2018-10-16T03:13:10.862Z,39.40
2018-10-16T03:15:41.611Z,39.35
2018-10-16T03:18:12.318Z,39.18
2018-10-16T03:20:43.245Z,39.35
2018-10-16T03:23:13.895Z,39.49
2018-10-16T03:25:44.807Z,39.40
2018-10-16T03:41:19.313Z,39.63
2018-10-16T03:44:02.306Z,39.61
2018-10-16T03:46:33.122Z,39.70
2018-10-16T03:49:03.898Z,39.54
2018-10-16T03:51:34.848Z,39.54
2018-10-16T03:54:05.559Z,39.58
2018-10-16T03:56:36.299Z,40.56
2018-10-16T03:59:07.337Z,40.57
2018-10-16T04:01:38.037Z,39.68
2018-10-16T04:04:08.902Z,39.33
2018-10-16T04:06:39.618Z,39.33
2018-10-16T04:09:10.364Z,39.36
2018-10-16T04:11:41.066Z,39.30
2018-10-16T04:14:11.905Z,39.29
2018-10-16T04:16:42.841Z,39.29
2018-10-16T04:19:13.557Z,39.47
2018-10-16T04:21:47.986Z,39.48
2018-10-16T04:24:18.783Z,39.55
2018-10-16T04:26:49.545Z,39.52
2018-10-16T04:29:20.356Z,39.55
2018-10-16T04:31:51.069Z,39.51
2018-10-16T04:34:21.925Z,39.54
2018-10-16T04:36:51.390Z,39.54
2018-10-16T04:39:22.069Z,39.38
2018-10-16T04:41:52.897Z,39.55
2018-10-16T04:44:23.779Z,39.55
2018-10-16T04:46:54.480Z,39.55
2018-10-16T04:49:25.310Z,39.53
2018-10-16T04:51:56.061Z,39.60
2018-10-16T04:54:26.912Z,39.82
2018-10-16T04:56:57.838Z,39.82
2018-10-16T04:59:28.548Z,39.69
2018-10-16T05:01:59.242Z,39.84
2018-10-16T05:04:30.065Z,39.95
2018-10-16T05:07:00.951Z,40.13
2018-10-16T05:09:30.392Z,40.13
2018-10-16T05:12:01.117Z,40.09
2018-10-16T05:15:02.422Z,40.22
2018-10-16T05:17:21.519Z,40.22
2018-10-16T05:20:11.100Z,40.13
2018-10-16T05:23:01.527Z,40.18
2018-10-16T05:25:32.556Z,40.18
2018-10-16T05:28:22.153Z,40.41
2018-10-16T05:30:52.959Z,40.27
2018-10-16T05:33:41.048Z,40.42
2018-10-16T05:52:36.572Z,40.35
2018-10-16T05:55:18.485Z,40.41
2018-10-16T05:57:49.484Z,40.40
2018-10-16T06:00:57.850Z,40.63
2018-10-16T06:03:47.436Z,40.64
2018-10-16T06:08:54.941Z,40.52
2018-10-16T06:11:43.064Z,40.75
2018-10-16T06:14:46.718Z,40.54
2018-10-16T06:17:22.109Z,40.54
2018-10-16T06:22:44.606Z,40.19
2018-10-16T06:25:34.444Z,40.28
2018-10-16T06:31:33.142Z,40.03
2018-10-16T06:34:03.963Z,39.99
2018-10-16T06:36:33.466Z,39.98
2018-10-16T06:39:23.060Z,39.82
2018-10-16T06:42:12.572Z,39.88
2018-10-16T06:44:43.475Z,39.88
2018-10-16T06:47:33.043Z,39.76
2018-10-16T06:50:22.589Z,39.70
2018-10-16T07:02:46.563Z,39.57
2018-10-16T07:12:01.576Z,39.58
2018-10-16T07:14:32.369Z,39.65
2018-10-16T07:17:22.068Z,39.60
2018-10-16T07:20:11.903Z,39.36
2018-10-16T07:22:42.856Z,39.36
2018-10-16T07:25:13.582Z,39.46
2018-10-16T07:28:03.353Z,39.45
2018-10-16T07:30:34.375Z,39.46
2018-10-16T07:33:05.094Z,39.53
2018-10-16T07:35:54.591Z,39.74
2018-10-16T07:52:14.567Z,39.06
2018-10-16T07:54:56.839Z,39.02
2018-10-16T08:12:52.538Z,38.18
2018-10-16T08:15:42.079Z,37.65
2018-10-16T08:18:31.621Z,37.75
2018-10-16T08:21:21.262Z,37.81
2018-10-16T08:24:11.031Z,37.81
2018-10-16T08:27:00.849Z,37.73
2018-10-16T08:29:31.582Z,37.73
2018-10-16T08:42:18.116Z,35.60
2018-10-16T08:45:00.066Z,34.26
2018-10-16T08:47:42.186Z,33.19
2018-10-16T08:50:24.008Z,32.21
2018-10-16T08:52:54.927Z,32.21
2018-10-16T08:55:24.448Z,30.84
2018-10-16T08:57:55.395Z,29.49
2018-10-16T09:00:26.122Z,28.97
2018-10-16T09:03:16.008Z,28.57
2018-10-16T09:06:05.532Z,28.21
2018-10-16T09:08:55.055Z,27.38
2018-10-16T09:11:45.996Z,26.83
2018-10-16T09:14:17.535Z,25.99
2018-10-16T09:17:07.114Z,25.95
2018-10-16T09:19:56.929Z,26.29
2018-10-16T09:22:44.989Z,26.10
2018-10-16T09:25:34.529Z,26.95
2018-10-16T09:28:24.130Z,27.95
2018-10-16T09:31:13.609Z,29.51
2018-10-16T09:41:26.989Z,30.38
2018-10-16T09:44:08.487Z,30.62
2018-10-16T09:46:50.587Z,30.91
2018-10-16T09:49:33.191Z,31.51
2018-10-16T09:52:15.330Z,31.83
2018-10-16T09:54:46.106Z,31.83
2018-10-16T09:57:35.605Z,32.08
2018-10-16T10:11:26.048Z,31.78
2018-10-16T10:13:56.938Z,31.22
2018-10-16T10:16:26.459Z,30.82
2018-10-16T10:19:16.051Z,29.71
2018-10-16T10:22:05.923Z,30.07
2018-10-16T10:24:54.008Z,28.71
2018-10-16T10:27:24.921Z,27.91
2018-10-16T10:29:54.404Z,28.30
2018-10-16T10:32:44.036Z,28.16
2018-10-16T10:35:34.027Z,26.90
2018-10-16T10:38:23.569Z,25.56
2018-10-16T10:51:27.944Z,21.04
2018-10-16T10:54:17.487Z,19.04
2018-10-16T10:57:08.081Z,19.04
2018-10-16T10:59:55.959Z,18.64
2018-10-16T11:02:47.119Z,18.31
2018-10-16T11:05:15.266Z,17.46
2018-10-16T11:07:46.556Z,17.06
2018-10-16T11:10:17.557Z,16.36
2018-10-16T11:12:48.948Z,15.51
2018-10-16T11:15:18.452Z,15.42
2018-10-16T11:17:51.584Z,15.35
2018-10-16T11:20:22.940Z,15.77
2018-10-16T11:22:52.488Z,15.29
2018-10-16T11:25:24.604Z,15.74
2018-10-16T11:27:55.889Z,15.21
2018-10-16T11:30:25.475Z,15.40
2018-10-16T11:32:57.600Z,14.87
2018-10-16T11:35:28.601Z,14.35
2018-10-16T11:37:59.891Z,14.19
2018-10-16T11:40:29.450Z,14.01
2018-10-16T11:43:00.604Z,13.54
2018-10-16T11:45:31.844Z,14.03
2018-10-16T11:48:01.437Z,14.05
2018-10-16T11:50:32.573Z,14.12
2018-10-16T11:53:03.542Z,13.59
2018-10-16T11:55:34.838Z,13.56
2018-10-16T11:58:05.852Z,13.52
2018-10-16T12:00:35.455Z,13.44
2018-10-16T12:03:06.575Z,13.03
2018-10-16T12:05:37.837Z,12.90
2018-10-16T12:08:07.479Z,12.59
2018-10-16T12:10:38.579Z,12.59
2018-10-16T12:13:09.667Z,13.03
2018-10-16T12:15:40.793Z,12.69
2018-10-16T12:18:23.990Z,12.25
2018-10-16T12:21:19.510Z,12.25
2018-10-16T12:23:50.993Z,11.77
2018-10-16T12:26:21.309Z,11.75
2018-10-16T12:28:52.590Z,11.66
2018-10-16T12:31:23.609Z,11.84
2018-10-16T12:33:54.946Z,12.42
2018-10-16T12:36:24.409Z,14.31
2018-10-16T12:38:55.655Z,14.71
2018-10-16T12:41:26.945Z,14.68
2018-10-16T12:43:56.468Z,16.01
2018-10-16T12:46:29.562Z,17.09
2018-10-16T12:49:00.909Z,17.46
2018-10-16T12:51:30.453Z,18.21
2018-10-16T12:54:01.589Z,18.68
2018-10-16T12:56:32.582Z,19.45
2018-10-16T12:59:03.831Z,20.33
2018-10-16T13:01:34.914Z,21.34
2018-10-16T13:04:04.448Z,21.34
2018-10-16T13:06:35.565Z,21.51
2018-10-16T13:09:07.516Z,20.34
2018-10-16T13:11:38.528Z,19.83
2018-10-16T13:14:09.677Z,20.23
2018-10-16T13:16:40.989Z,19.51
2018-10-16T13:19:11.882Z,19.23
2018-10-16T13:21:41.472Z,20.85
2018-10-16T13:24:12.406Z,22.32
2018-10-16T13:26:43.098Z,23.14
2018-10-16T13:29:14.478Z,24.29
2018-10-16T13:31:45.123Z,25.02
2018-10-16T13:34:16.407Z,25.69
2018-10-16T13:36:47.364Z,26.27
2018-10-16T13:39:18.126Z,26.61
2018-10-16T13:41:49.521Z,27.57
2018-10-16T13:44:20.481Z,29.30
2018-10-16T13:46:51.287Z,30.66
2018-10-16T13:49:22.371Z,31.34
2018-10-16T13:51:53.317Z,32.00
2018-10-16T13:54:24.130Z,32.76
2018-10-16T13:56:54.976Z,33.72
2018-10-16T13:59:24.500Z,33.72
2018-10-16T14:01:55.516Z,33.93
2018-10-16T14:04:26.457Z,34.27
2018-10-16T14:06:57.497Z,34.42
2018-10-16T14:09:28.457Z,34.51
2018-10-16T14:11:59.275Z,34.99
2018-10-16T14:14:30.419Z,34.75
2018-10-16T14:17:01.149Z,35.42
2018-10-16T14:19:31.962Z,35.50
2018-10-16T14:22:01.517Z,35.46
2018-10-16T14:24:32.475Z,35.60
2018-10-16T14:27:03.307Z,35.97
2018-10-16T14:29:34.393Z,35.58
2018-10-16T14:32:05.354Z,35.23
2018-10-16T14:34:36.514Z,35.44
2018-10-16T14:37:07.110Z,35.97
2018-10-16T14:39:38.051Z,35.20
2018-10-16T14:42:08.939Z,35.06
2018-10-16T14:44:38.448Z,35.06
2018-10-16T14:47:09.324Z,35.28
2018-10-16T14:49:40.058Z,35.16
2018-10-16T14:52:11.035Z,35.76
2018-10-16T14:54:40.443Z,35.76
2018-10-16T14:57:11.362Z,35.93
2018-10-16T14:59:42.336Z,36.00
2018-10-16T15:02:13.348Z,36.38
2018-10-16T15:04:44.289Z,36.41
2018-10-16T15:07:15.146Z,36.62
2018-10-16T15:09:45.971Z,37.14
2018-10-16T15:12:15.456Z,37.14
2018-10-16T15:14:46.135Z,37.07
2018-10-16T15:17:17.121Z,37.38
2018-10-16T15:19:48.057Z,38.11
2018-10-16T15:22:19.047Z,38.65
2018-10-16T15:24:49.956Z,39.27
2018-10-16T15:27:19.513Z,39.27
2018-10-16T15:29:50.585Z,39.37
2018-10-16T15:32:21.358Z,39.34
2018-10-16T15:34:52.050Z,39.68
2018-10-16T15:37:22.968Z,40.75
2018-10-16T15:39:52.407Z,40.75
2018-10-16T15:42:23.058Z,40.94
2018-10-16T15:44:53.951Z,40.43
2018-10-16T15:47:23.400Z,40.43
2018-10-16T15:49:54.189Z,40.18
2018-10-16T15:52:24.981Z,40.55
2018-10-16T15:54:55.886Z,40.55
2018-10-16T15:57:26.806Z,40.45
2018-10-16T15:59:57.572Z,41.02
2018-10-16T16:02:28.371Z,41.08
2018-10-16T16:04:59.048Z,41.14
2018-10-16T16:07:29.978Z,41.91
2018-10-16T16:10:00.919Z,41.91
2018-10-16T16:12:31.948Z,42.03
2018-10-16T16:15:02.878Z,42.24
2018-10-16T16:17:33.769Z,42.10
2018-10-16T16:20:04.556Z,42.19
2018-10-16T16:22:35.397Z,42.31
2018-10-16T16:25:06.548Z,42.36
2018-10-16T16:27:37.539Z,42.95
2018-10-16T16:30:09.443Z,43.31
2018-10-16T16:32:40.352Z,42.90
2018-10-16T16:35:11.147Z,43.67
2018-10-16T16:37:41.919Z,44.38
2018-10-16T16:40:12.333Z,44.38
2018-10-16T16:42:42.980Z,44.56
2018-10-16T16:45:13.989Z,45.05
2018-10-16T16:47:44.857Z,45.22
2018-10-16T16:50:15.575Z,45.36
2018-10-16T16:52:46.315Z,45.47
2018-10-16T16:55:17.581Z,45.69
2018-10-16T16:57:48.377Z,46.08
2018-10-16T17:00:19.069Z,46.33
2018-10-16T17:02:49.922Z,46.54
2018-10-16T17:05:20.862Z,46.54
2018-10-16T17:07:51.966Z,46.54
2018-10-16T17:10:22.869Z,46.76
2018-10-16T17:12:53.527Z,46.86
2018-10-16T17:15:24.323Z,47.05
2018-10-16T17:18:13.989Z,47.22
2018-10-16T17:21:03.518Z,47.40
2018-10-16T17:34:07.928Z,48.38
2018-10-16T17:36:38.800Z,48.37
2018-10-16T17:39:11.503Z,48.59
2018-10-16T17:41:42.580Z,48.65
2018-10-16T17:44:13.362Z,48.75
2018-10-16T17:46:44.081Z,48.80
2018-10-16T17:49:14.940Z,49.15
2018-10-16T17:51:44.397Z,49.15
2018-10-16T17:54:15.296Z,49.26
2018-10-16T17:56:46.086Z,49.25
2018-10-16T17:59:16.952Z,49.44
2018-10-16T18:02:05.054Z,49.44
2018-10-16T18:04:54.598Z,49.80
2018-10-16T18:07:44.986Z,49.80
2018-10-16T18:10:15.863Z,50.08
2018-10-16T18:12:46.948Z,50.23
2018-10-16T18:15:16.742Z,50.37
2018-10-16T18:21:37.949Z,50.55
2018-10-16T18:27:20.880Z,50.74
2018-10-16T18:29:51.618Z,50.86
2018-10-16T18:32:22.329Z,51.01
2018-10-16T18:34:53.089Z,51.03
2018-10-16T18:37:23.904Z,51.16
2018-10-16T18:39:54.582Z,51.16
2018-10-16T18:42:25.528Z,51.12
2018-10-16T18:44:56.364Z,51.26
2018-10-16T18:47:27.054Z,51.34
2018-10-16T18:49:57.937Z,51.60
2018-10-16T18:52:27.381Z,51.60
2018-10-16T18:54:58.135Z,51.83
2018-10-16T18:57:29.116Z,51.90
2018-10-16T18:59:59.900Z,52.04
2018-10-16T19:02:30.789Z,52.04
2018-10-16T19:05:01.761Z,52.10
2018-10-16T19:07:32.475Z,52.31
2018-10-16T19:10:03.440Z,52.32
2018-10-16T19:12:34.264Z,52.46
2018-10-16T19:15:05.113Z,52.51
2018-10-16T19:17:36.038Z,52.80
2018-10-16T19:20:07.558Z,52.97
2018-10-16T19:22:38.381Z,52.97
2018-10-16T19:25:10.333Z,53.07
2018-10-16T19:27:41.140Z,53.09
2018-10-16T19:30:12.957Z,53.03
2018-10-16T19:32:42.432Z,53.03
2018-10-16T19:35:14.428Z,53.11
2018-10-16T19:37:45.169Z,53.24
2018-10-16T19:40:15.902Z,53.47
2018-10-16T19:42:46.991Z,53.47
2018-10-16T19:45:17.950Z,53.57
2018-10-16T19:47:48.557Z,53.62
2018-10-16T19:50:19.367Z,53.57
2018-10-16T19:52:50.052Z,53.54
2018-10-16T19:55:20.935Z,53.68
2018-10-16T19:57:50.428Z,53.68
2018-10-16T20:00:21.188Z,53.71
2018-10-16T20:02:51.936Z,53.72
2018-10-16T20:05:21.421Z,53.82
2018-10-16T20:07:52.055Z,53.93
2018-10-16T20:10:22.840Z,54.11
2018-10-16T20:12:53.585Z,54.11
2018-10-16T20:15:24.321Z,53.99
2018-10-16T20:17:55.112Z,53.85
2018-10-16T20:20:25.931Z,54.16
2018-10-16T20:22:55.381Z,54.16
2018-10-16T20:25:26.223Z,54.10
2018-10-16T20:27:56.952Z,54.29
2018-10-16T20:30:26.380Z,54.44
2018-10-16T20:32:57.163Z,54.47
2018-10-16T20:35:27.990Z,54.57
2018-10-16T20:37:58.885Z,54.68
2018-10-16T20:40:29.887Z,54.80
2018-10-16T20:43:01.022Z,54.81
2018-10-16T20:45:30.414Z,54.90
2018-10-16T20:48:01.089Z,55.07
2018-10-16T20:50:31.979Z,55.39
2018-10-16T20:53:01.457Z,55.39
2018-10-16T20:55:32.119Z,55.54
2018-10-16T20:58:03.059Z,55.63
2018-10-16T21:00:33.973Z,55.72
2018-10-16T21:03:03.458Z,55.72
2018-10-16T21:05:34.175Z,55.81
2018-10-16T21:08:04.925Z,56.10
2018-10-16T21:10:35.934Z,56.10
2018-10-16T21:13:05.459Z,55.86
2018-10-16T21:15:36.061Z,56.09
2018-10-16T21:18:06.952Z,56.49
2018-10-16T21:20:36.399Z,56.49
2018-10-16T21:23:07.356Z,56.83
2018-10-16T21:25:38.052Z,56.96
2018-10-16T21:28:08.880Z,56.79
2018-10-16T21:30:39.800Z,56.79
2018-10-16T21:33:10.496Z,56.52
2018-10-16T21:35:41.368Z,56.61
2018-10-16T21:38:12.088Z,57.09
2018-10-16T21:40:42.967Z,57.21
2018-10-16T21:43:12.435Z,57.21
2018-10-16T21:45:43.301Z,57.20
2018-10-16T21:49:36.481Z,57.41
2018-10-16T21:52:07.574Z,57.35
2018-10-16T21:54:38.331Z,57.33
2018-10-16T21:57:09.080Z,57.47
2018-10-16T21:59:40.003Z,57.39
2018-10-16T22:02:27.856Z,57.39
2018-10-16T22:04:58.602Z,57.56
2018-10-16T22:07:29.292Z,57.83
2018-10-16T22:10:00.023Z,58.08
2018-10-16T22:12:30.864Z,58.02
2018-10-16T22:15:01.588Z,58.14
2018-10-16T22:17:32.317Z,58.27
2018-10-16T22:20:03.126Z,58.32
2018-10-16T22:22:33.903Z,57.93
2018-10-16T22:25:04.898Z,57.93
2018-10-16T22:27:35.855Z,58.16
2018-10-16T22:30:06.540Z,58.32
2018-10-16T22:32:37.352Z,58.30
2018-10-16T22:35:09.444Z,58.59
2018-10-16T22:37:40.283Z,58.87
2018-10-16T22:40:11.850Z,58.83
2018-10-16T22:42:42.581Z,59.04
2018-10-16T22:45:13.355Z,59.15
2018-10-16T22:47:44.083Z,59.21
2018-10-16T22:50:15.000Z,59.39
2018-10-16T22:52:45.590Z,59.39
2018-10-16T22:55:16.431Z,59.46
2018-10-16T22:57:47.092Z,59.56
2018-10-16T23:00:18.971Z,59.77
2018-10-16T23:02:49.261Z,59.77
2018-10-16T23:05:20.071Z,59.72
2018-10-16T23:08:09.584Z,59.44
2018-10-16T23:10:59.107Z,59.44
2018-10-16T23:13:29.954Z,59.32
2018-10-16T23:15:59.401Z,59.32
2018-10-16T23:22:04.320Z,59.81
2018-10-16T23:24:35.364Z,59.92
2018-10-16T23:27:06.301Z,60.32
2018-10-16T23:29:37.087Z,60.33
2018-10-16T23:32:08.071Z,60.06
2018-10-16T23:34:38.875Z,60.22
2018-10-16T23:37:09.639Z,60.22
2018-10-16T23:39:40.386Z,60.45
2018-10-16T23:42:11.056Z,60.51
2018-10-16T23:44:41.859Z,60.08
2018-10-16T23:47:12.561Z,60.08
2018-10-16T23:49:43.249Z,60.69
2018-10-16T23:52:14.069Z,60.66
2018-10-16T23:54:44.889Z,60.70
2018-10-16T23:57:15.550Z,60.70
2018-10-16T23:59:46.355Z,60.73
